sensor_id;sensor_type;location;lat;lon;timestamp;P1;durP1;ratioP1;P2;durP2;ratioP2
75061;SDS011;63641;46.526;24.612;2023-07-09T00:01:12;3.65;;;3.28;;
75061;SDS011;63641;46.526;24.612;2023-07-09T00:03:44;3.53;;;3.22;;
75061;SDS011;63641;46.526;24.612;2023-07-09T00:06:14;4.35;;;3.50;;
75061;SDS011;63641;46.526;24.612;2023-07-09T00:08:42;4.03;;;3.50;;
75061;SDS011;63641;46.526;24.612;2023-07-09T00:11:10;4.22;;;3.83;;
75061;SDS011;63641;46.526;24.612;2023-07-09T00:13:37;3.85;;;3.45;;
75061;SDS011;63641;46.526;24.612;2023-07-09T00:16:09;3.83;;;3.42;;
75061;SDS011;63641;46.526;24.612;2023-07-09T00:18:40;4.78;;;3.40;;
75061;SDS011;63641;46.526;24.612;2023-07-09T00:21:07;3.25;;;2.95;;
75061;SDS011;63641;46.526;24.612;2023-07-09T00:23:34;5.47;;;3.20;;
75061;SDS011;63641;46.526;24.612;2023-07-09T00:26:00;5.68;;;3.33;;
75061;SDS011;63641;46.526;24.612;2023-07-09T00:28:30;4.72;;;3.50;;
75061;SDS011;63641;46.526;24.612;2023-07-09T00:30:57;5.20;;;3.45;;
75061;SDS011;63641;46.526;24.612;2023-07-09T00:33:23;5.43;;;3.92;;
75061;SDS011;63641;46.526;24.612;2023-07-09T00:35:58;5.43;;;3.60;;
75061;SDS011;63641;46.526;24.612;2023-07-09T00:38:26;4.35;;;3.22;;
75061;SDS011;63641;46.526;24.612;2023-07-09T00:43:25;4.45;;;3.63;;
75061;SDS011;63641;46.526;24.612;2023-07-09T00:48:42;9.70;;;4.18;;
75061;SDS011;63641;46.526;24.612;2023-07-09T00:51:11;3.63;;;3.33;;
75061;SDS011;63641;46.526;24.612;2023-07-09T00:53:40;3.60;;;3.03;;
75061;SDS011;63641;46.526;24.612;2023-07-09T00:56:15;3.85;;;3.45;;
75061;SDS011;63641;46.526;24.612;2023-07-09T00:58:50;4.28;;;3.83;;
75061;SDS011;63641;46.526;24.612;2023-07-09T01:01:18;6.75;;;3.55;;
75061;SDS011;63641;46.526;24.612;2023-07-09T01:03:49;5.93;;;3.83;;
75061;SDS011;63641;46.526;24.612;2023-07-09T01:06:21;7.00;;;3.80;;
75061;SDS011;63641;46.526;24.612;2023-07-09T01:08:56;4.28;;;3.88;;
75061;SDS011;63641;46.526;24.612;2023-07-09T01:11:23;4.10;;;3.67;;
75061;SDS011;63641;46.526;24.612;2023-07-09T01:13:54;6.65;;;4.18;;
75061;SDS011;63641;46.526;24.612;2023-07-09T01:16:23;4.57;;;3.83;;
75061;SDS011;63641;46.526;24.612;2023-07-09T01:18:53;4.22;;;3.90;;
75061;SDS011;63641;46.526;24.612;2023-07-09T01:21:20;4.20;;;3.80;;
75061;SDS011;63641;46.526;24.612;2023-07-09T01:23:48;4.68;;;3.42;;
75061;SDS011;63641;46.526;24.612;2023-07-09T01:26:17;3.80;;;3.42;;
75061;SDS011;63641;46.526;24.612;2023-07-09T01:28:46;4.53;;;3.30;;
75061;SDS011;63641;46.526;24.612;2023-07-09T01:31:14;4.07;;;3.67;;
75061;SDS011;63641;46.526;24.612;2023-07-09T01:33:42;4.20;;;3.70;;
75061;SDS011;63641;46.526;24.612;2023-07-09T01:36:15;5.25;;;4.00;;
75061;SDS011;63641;46.526;24.612;2023-07-09T01:38:45;6.15;;;5.03;;
75061;SDS011;63641;46.526;24.612;2023-07-09T01:41:12;5.00;;;3.42;;
75061;SDS011;63641;46.526;24.612;2023-07-09T01:43:41;3.95;;;3.55;;
75061;SDS011;63641;46.526;24.612;2023-07-09T01:46:09;3.55;;;3.25;;
75061;SDS011;63641;46.526;24.612;2023-07-09T01:48:38;3.50;;;3.20;;
75061;SDS011;63641;46.526;24.612;2023-07-09T01:51:12;4.28;;;3.90;;
75061;SDS011;63641;46.526;24.612;2023-07-09T01:53:42;3.53;;;3.22;;
75061;SDS011;63641;46.526;24.612;2023-07-09T01:56:13;3.40;;;3.08;;
75061;SDS011;63641;46.526;24.612;2023-07-09T01:58:40;3.05;;;2.83;;
75061;SDS011;63641;46.526;24.612;2023-07-09T02:01:09;3.78;;;3.28;;
75061;SDS011;63641;46.526;24.612;2023-07-09T02:03:36;3.65;;;3.30;;
75061;SDS011;63641;46.526;24.612;2023-07-09T02:06:03;3.25;;;2.95;;
75061;SDS011;63641;46.526;24.612;2023-07-09T02:08:36;4.03;;;3.03;;
75061;SDS011;63641;46.526;24.612;2023-07-09T02:11:03;3.90;;;3.20;;
75061;SDS011;63641;46.526;24.612;2023-07-09T02:13:30;3.40;;;2.95;;
75061;SDS011;63641;46.526;24.612;2023-07-09T02:15:57;3.30;;;3.00;;
75061;SDS011;63641;46.526;24.612;2023-07-09T02:18:25;4.95;;;3.20;;
75061;SDS011;63641;46.526;24.612;2023-07-09T02:20:54;4.07;;;3.15;;
75061;SDS011;63641;46.526;24.612;2023-07-09T02:23:25;3.25;;;2.75;;
75061;SDS011;63641;46.526;24.612;2023-07-09T02:25:53;3.83;;;3.25;;
75061;SDS011;63641;46.526;24.612;2023-07-09T02:28:20;4.35;;;3.03;;
75061;SDS011;63641;46.526;24.612;2023-07-09T02:30:47;3.20;;;2.90;;
75061;SDS011;63641;46.526;24.612;2023-07-09T02:33:14;3.13;;;2.85;;
75061;SDS011;63641;46.526;24.612;2023-07-09T02:35:40;3.60;;;3.30;;
75061;SDS011;63641;46.526;24.612;2023-07-09T02:38:07;3.88;;;3.22;;
75061;SDS011;63641;46.526;24.612;2023-07-09T02:40:34;3.67;;;3.35;;
75061;SDS011;63641;46.526;24.612;2023-07-09T02:43:00;5.70;;;3.75;;
75061;SDS011;63641;46.526;24.612;2023-07-09T02:45:27;3.45;;;3.10;;
75061;SDS011;63641;46.526;24.612;2023-07-09T02:47:54;5.18;;;3.30;;
75061;SDS011;63641;46.526;24.612;2023-07-09T02:50:21;3.00;;;2.80;;
75061;SDS011;63641;46.526;24.612;2023-07-09T02:52:47;3.47;;;3.17;;
75061;SDS011;63641;46.526;24.612;2023-07-09T02:55:14;3.45;;;3.15;;
75061;SDS011;63641;46.526;24.612;2023-07-09T02:57:41;5.78;;;3.90;;
75061;SDS011;63641;46.526;24.612;2023-07-09T03:00:07;4.38;;;3.47;;
75061;SDS011;63641;46.526;24.612;2023-07-09T03:02:35;3.47;;;3.10;;
75061;SDS011;63641;46.526;24.612;2023-07-09T03:05:02;3.80;;;3.50;;
75061;SDS011;63641;46.526;24.612;2023-07-09T03:07:29;3.50;;;3.20;;
75061;SDS011;63641;46.526;24.612;2023-07-09T03:09:55;4.22;;;3.28;;
75061;SDS011;63641;46.526;24.612;2023-07-09T03:12:22;5.93;;;3.80;;
75061;SDS011;63641;46.526;24.612;2023-07-09T03:14:48;3.75;;;3.15;;
75061;SDS011;63641;46.526;24.612;2023-07-09T03:17:15;3.22;;;3.00;;
75061;SDS011;63641;46.526;24.612;2023-07-09T03:19:42;4.72;;;3.60;;
75061;SDS011;63641;46.526;24.612;2023-07-09T03:22:09;4.00;;;3.20;;
75061;SDS011;63641;46.526;24.612;2023-07-09T03:24:36;4.03;;;3.65;;
75061;SDS011;63641;46.526;24.612;2023-07-09T03:27:03;3.88;;;3.55;;
75061;SDS011;63641;46.526;24.612;2023-07-09T03:29:30;3.67;;;3.38;;
75061;SDS011;63641;46.526;24.612;2023-07-09T03:31:57;3.58;;;3.28;;
75061;SDS011;63641;46.526;24.612;2023-07-09T03:34:24;3.63;;;3.33;;
75061;SDS011;63641;46.526;24.612;2023-07-09T03:36:51;4.30;;;3.90;;
75061;SDS011;63641;46.526;24.612;2023-07-09T03:39:17;4.22;;;3.40;;
75061;SDS011;63641;46.526;24.612;2023-07-09T03:41:46;3.72;;;3.42;;
75061;SDS011;63641;46.526;24.612;2023-07-09T03:44:13;4.57;;;3.60;;
75061;SDS011;63641;46.526;24.612;2023-07-09T03:46:40;3.80;;;3.33;;
75061;SDS011;63641;46.526;24.612;2023-07-09T03:49:07;4.18;;;3.78;;
75061;SDS011;63641;46.526;24.612;2023-07-09T03:51:33;4.40;;;4.00;;
75061;SDS011;63641;46.526;24.612;2023-07-09T03:54:00;4.28;;;3.88;;
75061;SDS011;63641;46.526;24.612;2023-07-09T03:56:26;4.20;;;3.90;;
75061;SDS011;63641;46.526;24.612;2023-07-09T03:58:53;5.75;;;4.40;;
75061;SDS011;63641;46.526;24.612;2023-07-09T04:01:20;4.40;;;4.00;;
75061;SDS011;63641;46.526;24.612;2023-07-09T04:03:46;4.50;;;4.10;;
75061;SDS011;63641;46.526;24.612;2023-07-09T04:06:13;7.35;;;4.32;;
75061;SDS011;63641;46.526;24.612;2023-07-09T04:08:40;6.38;;;5.78;;
75061;SDS011;63641;46.526;24.612;2023-07-09T04:11:07;4.45;;;4.05;;
75061;SDS011;63641;46.526;24.612;2023-07-09T04:13:33;6.70;;;4.20;;
75061;SDS011;63641;46.526;24.612;2023-07-09T04:16:00;4.40;;;4.00;;
75061;SDS011;63641;46.526;24.612;2023-07-09T04:18:27;4.72;;;4.32;;
75061;SDS011;63641;46.526;24.612;2023-07-09T04:20:54;7.68;;;4.82;;
75061;SDS011;63641;46.526;24.612;2023-07-09T04:23:21;5.80;;;4.72;;
75061;SDS011;63641;46.526;24.612;2023-07-09T04:25:48;6.95;;;4.63;;
75061;SDS011;63641;46.526;24.612;2023-07-09T04:28:15;5.00;;;4.60;;
75061;SDS011;63641;46.526;24.612;2023-07-09T04:31:00;5.00;;;4.50;;
75061;SDS011;63641;46.526;24.612;2023-07-09T04:33:26;5.25;;;4.75;;
75061;SDS011;63641;46.526;24.612;2023-07-09T04:35:54;4.70;;;4.30;;
75061;SDS011;63641;46.526;24.612;2023-07-09T04:38:21;6.32;;;5.22;;
75061;SDS011;63641;46.526;24.612;2023-07-09T04:40:49;5.00;;;4.50;;
75061;SDS011;63641;46.526;24.612;2023-07-09T04:43:16;4.85;;;4.22;;
75061;SDS011;63641;46.526;24.612;2023-07-09T04:45:42;5.40;;;4.03;;
75061;SDS011;63641;46.526;24.612;2023-07-09T04:48:09;5.15;;;4.45;;
75061;SDS011;63641;46.526;24.612;2023-07-09T04:50:36;4.55;;;4.05;;
75061;SDS011;63641;46.526;24.612;2023-07-09T04:53:02;4.68;;;4.32;;
75061;SDS011;63641;46.526;24.612;2023-07-09T04:55:30;4.50;;;4.10;;
75061;SDS011;63641;46.526;24.612;2023-07-09T04:57:56;4.53;;;4.13;;
75061;SDS011;63641;46.526;24.612;2023-07-09T05:00:23;3.80;;;3.40;;
75061;SDS011;63641;46.526;24.612;2023-07-09T05:02:50;4.20;;;3.80;;
75061;SDS011;63641;46.526;24.612;2023-07-09T05:05:17;4.57;;;3.42;;
75061;SDS011;63641;46.526;24.612;2023-07-09T05:07:44;4.72;;;3.88;;
75061;SDS011;63641;46.526;24.612;2023-07-09T05:10:11;4.03;;;3.35;;
75061;SDS011;63641;46.526;24.612;2023-07-09T05:12:46;4.53;;;3.10;;
75061;SDS011;63641;46.526;24.612;2023-07-09T05:15:14;3.38;;;3.08;;
75061;SDS011;63641;46.526;24.612;2023-07-09T05:17:41;4.68;;;3.13;;
75061;SDS011;63641;46.526;24.612;2023-07-09T05:20:08;3.75;;;3.10;;
75061;SDS011;63641;46.526;24.612;2023-07-09T05:22:35;3.65;;;3.33;;
75061;SDS011;63641;46.526;24.612;2023-07-09T05:25:02;3.97;;;3.10;;
75061;SDS011;63641;46.526;24.612;2023-07-09T05:27:29;3.45;;;3.10;;
75061;SDS011;63641;46.526;24.612;2023-07-09T05:29:56;3.28;;;2.97;;
75061;SDS011;63641;46.526;24.612;2023-07-09T05:32:23;3.30;;;2.95;;
75061;SDS011;63641;46.526;24.612;2023-07-09T05:34:49;3.88;;;3.20;;
75061;SDS011;63641;46.526;24.612;2023-07-09T05:37:16;4.47;;;3.28;;
75061;SDS011;63641;46.526;24.612;2023-07-09T05:39:43;6.40;;;3.10;;
75061;SDS011;63641;46.526;24.612;2023-07-09T05:42:09;3.80;;;3.15;;
75061;SDS011;63641;46.526;24.612;2023-07-09T05:44:36;4.18;;;2.92;;
75061;SDS011;63641;46.526;24.612;2023-07-09T05:47:03;3.35;;;3.05;;
75061;SDS011;63641;46.526;24.612;2023-07-09T05:49:30;4.22;;;3.13;;
75061;SDS011;63641;46.526;24.612;2023-07-09T05:51:57;3.03;;;2.78;;
75061;SDS011;63641;46.526;24.612;2023-07-09T05:54:24;4.18;;;3.10;;
75061;SDS011;63641;46.526;24.612;2023-07-09T05:56:50;3.25;;;2.95;;
75061;SDS011;63641;46.526;24.612;2023-07-09T05:59:17;2.90;;;2.50;;
75061;SDS011;63641;46.526;24.612;2023-07-09T06:01:44;3.63;;;2.80;;
75061;SDS011;63641;46.526;24.612;2023-07-09T06:04:10;2.97;;;2.63;;
75061;SDS011;63641;46.526;24.612;2023-07-09T06:06:41;2.70;;;2.50;;
75061;SDS011;63641;46.526;24.612;2023-07-09T06:09:08;4.03;;;2.90;;
75061;SDS011;63641;46.526;24.612;2023-07-09T06:11:35;4.10;;;2.75;;
75061;SDS011;63641;46.526;24.612;2023-07-09T06:14:02;3.22;;;2.70;;
75061;SDS011;63641;46.526;24.612;2023-07-09T06:16:29;3.72;;;3.00;;
75061;SDS011;63641;46.526;24.612;2023-07-09T06:18:56;3.05;;;2.53;;
75061;SDS011;63641;46.526;24.612;2023-07-09T06:21:25;3.20;;;2.83;;
75061;SDS011;63641;46.526;24.612;2023-07-09T06:23:52;3.00;;;2.47;;
75061;SDS011;63641;46.526;24.612;2023-07-09T06:26:21;2.70;;;2.50;;
75061;SDS011;63641;46.526;24.612;2023-07-09T06:28:48;3.60;;;2.70;;
75061;SDS011;63641;46.526;24.612;2023-07-09T06:31:15;3.40;;;2.20;;
75061;SDS011;63641;46.526;24.612;2023-07-09T06:33:41;2.47;;;2.28;;
75061;SDS011;63641;46.526;24.612;2023-07-09T06:36:08;2.50;;;2.30;;
75061;SDS011;63641;46.526;24.612;2023-07-09T06:38:35;3.28;;;2.10;;
75061;SDS011;63641;46.526;24.612;2023-07-09T06:41:01;3.60;;;2.35;;
75061;SDS011;63641;46.526;24.612;2023-07-09T06:43:28;2.25;;;2.05;;
75061;SDS011;63641;46.526;24.612;2023-07-09T06:45:57;3.45;;;1.95;;
75061;SDS011;63641;46.526;24.612;2023-07-09T06:48:26;3.10;;;2.30;;
75061;SDS011;63641;46.526;24.612;2023-07-09T06:50:55;2.17;;;1.98;;
75061;SDS011;63641;46.526;24.612;2023-07-09T06:53:23;6.32;;;2.30;;
75061;SDS011;63641;46.526;24.612;2023-07-09T06:55:50;2.65;;;1.92;;
75061;SDS011;63641;46.526;24.612;2023-07-09T06:58:17;3.53;;;2.50;;
75061;SDS011;63641;46.526;24.612;2023-07-09T07:00:43;3.85;;;2.15;;
75061;SDS011;63641;46.526;24.612;2023-07-09T07:03:11;2.20;;;2.00;;
75061;SDS011;63641;46.526;24.612;2023-07-09T07:05:42;2.33;;;2.10;;
75061;SDS011;63641;46.526;24.612;2023-07-09T07:08:13;2.47;;;2.20;;
75061;SDS011;63641;46.526;24.612;2023-07-09T07:10:42;6.65;;;2.40;;
75061;SDS011;63641;46.526;24.612;2023-07-09T07:13:10;3.42;;;2.33;;
75061;SDS011;63641;46.526;24.612;2023-07-09T07:15:37;5.65;;;2.00;;
75061;SDS011;63641;46.526;24.612;2023-07-09T07:18:04;2.65;;;2.05;;
75061;SDS011;63641;46.526;24.612;2023-07-09T07:20:33;2.40;;;1.98;;
75061;SDS011;63641;46.526;24.612;2023-07-09T07:23:00;2.05;;;1.85;;
75061;SDS011;63641;46.526;24.612;2023-07-09T07:25:26;4.18;;;2.00;;
75061;SDS011;63641;46.526;24.612;2023-07-09T07:27:53;2.10;;;1.90;;
75061;SDS011;63641;46.526;24.612;2023-07-09T07:30:20;3.53;;;2.38;;
75061;SDS011;63641;46.526;24.612;2023-07-09T07:32:50;2.40;;;2.00;;
75061;SDS011;63641;46.526;24.612;2023-07-09T07:35:18;2.75;;;1.90;;
75061;SDS011;63641;46.526;24.612;2023-07-09T07:37:46;2.10;;;1.90;;
75061;SDS011;63641;46.526;24.612;2023-07-09T07:40:13;3.28;;;1.90;;
75061;SDS011;63641;46.526;24.612;2023-07-09T07:42:40;2.40;;;2.08;;
75061;SDS011;63641;46.526;24.612;2023-07-09T07:45:07;3.47;;;2.10;;
75061;SDS011;63641;46.526;24.612;2023-07-09T07:47:35;2.28;;;2.08;;
75061;SDS011;63641;46.526;24.612;2023-07-09T07:50:03;3.28;;;2.10;;
75061;SDS011;63641;46.526;24.612;2023-07-09T07:52:31;2.55;;;2.00;;
75061;SDS011;63641;46.526;24.612;2023-07-09T07:54:59;2.60;;;2.03;;
75061;SDS011;63641;46.526;24.612;2023-07-09T07:57:26;2.83;;;2.40;;
75061;SDS011;63641;46.526;24.612;2023-07-09T07:59:53;2.58;;;2.30;;
75061;SDS011;63641;46.526;24.612;2023-07-09T08:02:20;5.47;;;2.30;;
75061;SDS011;63641;46.526;24.612;2023-07-09T08:04:47;3.03;;;2.30;;
75061;SDS011;63641;46.526;24.612;2023-07-09T08:07:14;3.50;;;2.50;;
75061;SDS011;63641;46.526;24.612;2023-07-09T08:09:41;3.10;;;2.40;;
75061;SDS011;63641;46.526;24.612;2023-07-09T08:12:08;2.50;;;2.30;;
75061;SDS011;63641;46.526;24.612;2023-07-09T08:14:41;2.50;;;2.28;;
75061;SDS011;63641;46.526;24.612;2023-07-09T08:17:11;2.65;;;2.20;;
75061;SDS011;63641;46.526;24.612;2023-07-09T08:19:48;3.42;;;2.20;;
75061;SDS011;63641;46.526;24.612;2023-07-09T08:22:17;4.65;;;2.45;;
75061;SDS011;63641;46.526;24.612;2023-07-09T08:24:47;3.45;;;2.53;;
75061;SDS011;63641;46.526;24.612;2023-07-09T08:27:14;2.78;;;2.53;;
75061;SDS011;63641;46.526;24.612;2023-07-09T08:29:41;3.97;;;2.80;;
75061;SDS011;63641;46.526;24.612;2023-07-09T08:32:09;4.47;;;2.80;;
75061;SDS011;63641;46.526;24.612;2023-07-09T08:34:37;2.70;;;2.50;;
75061;SDS011;63641;46.526;24.612;2023-07-09T08:37:25;2.58;;;2.25;;
75061;SDS011;63641;46.526;24.612;2023-07-09T08:39:52;3.00;;;2.50;;
75061;SDS011;63641;46.526;24.612;2023-07-09T08:42:26;5.78;;;2.60;;
75061;SDS011;63641;46.526;24.612;2023-07-09T08:45:12;4.18;;;2.67;;
75061;SDS011;63641;46.526;24.612;2023-07-09T08:50:24;2.35;;;2.13;;
75061;SDS011;63641;46.526;24.612;2023-07-09T08:52:55;2.28;;;2.08;;
75061;SDS011;63641;46.526;24.612;2023-07-09T08:55:25;2.65;;;2.30;;
75061;SDS011;63641;46.526;24.612;2023-07-09T08:57:57;3.33;;;2.40;;
75061;SDS011;63641;46.526;24.612;2023-07-09T09:00:31;2.75;;;2.20;;
75061;SDS011;63641;46.526;24.612;2023-07-09T09:03:03;3.72;;;2.05;;
75061;SDS011;63641;46.526;24.612;2023-07-09T09:05:35;2.08;;;1.80;;
75061;SDS011;63641;46.526;24.612;2023-07-09T09:10:47;2.30;;;2.10;;
75061;SDS011;63641;46.526;24.612;2023-07-09T09:13:25;2.95;;;2.30;;
75061;SDS011;63641;46.526;24.612;2023-07-09T09:16:03;3.50;;;2.42;;
75061;SDS011;63641;46.526;24.612;2023-07-09T09:18:37;2.95;;;2.03;;
75061;SDS011;63641;46.526;24.612;2023-07-09T09:21:14;2.75;;;1.95;;
75061;SDS011;63641;46.526;24.612;2023-07-09T09:23:52;2.47;;;2.22;;
75061;SDS011;63641;46.526;24.612;2023-07-09T09:26:34;2.42;;;2.22;;
75061;SDS011;63641;46.526;24.612;2023-07-09T09:29:15;3.28;;;2.10;;
75061;SDS011;63641;46.526;24.612;2023-07-09T09:31:43;2.05;;;1.85;;
75061;SDS011;63641;46.526;24.612;2023-07-09T09:34:19;3.05;;;2.05;;
75061;SDS011;63641;46.526;24.612;2023-07-09T09:36:47;2.83;;;1.83;;
75061;SDS011;63641;46.526;24.612;2023-07-09T09:39:14;2.72;;;1.80;;
75061;SDS011;63641;46.526;24.612;2023-07-09T09:41:43;4.00;;;2.40;;
75061;SDS011;63641;46.526;24.612;2023-07-09T09:44:18;2.25;;;2.05;;
75061;SDS011;63641;46.526;24.612;2023-07-09T09:46:48;3.08;;;2.00;;
75061;SDS011;63641;46.526;24.612;2023-07-09T09:49:17;2.78;;;2.00;;
75061;SDS011;63641;46.526;24.612;2023-07-09T09:51:44;2.95;;;2.08;;
75061;SDS011;63641;46.526;24.612;2023-07-09T09:54:24;3.10;;;1.90;;
75061;SDS011;63641;46.526;24.612;2023-07-09T09:56:53;2.10;;;1.90;;
75061;SDS011;63641;46.526;24.612;2023-07-09T09:59:23;2.92;;;1.92;;
75061;SDS011;63641;46.526;24.612;2023-07-09T10:02:00;2.27;;;2.07;;
75061;SDS011;63641;46.526;24.612;2023-07-09T10:04:29;2.45;;;2.13;;
75061;SDS011;63641;46.526;24.612;2023-07-09T10:06:57;1.75;;;1.65;;
75061;SDS011;63641;46.526;24.612;2023-07-09T10:09:43;3.10;;;2.08;;
75061;SDS011;63641;46.526;24.612;2023-07-09T10:12:29;2.70;;;1.95;;
75061;SDS011;63641;46.526;24.612;2023-07-09T10:26:15;3.63;;;1.90;;
75061;SDS011;63641;46.526;24.612;2023-07-09T10:34:33;2.88;;;2.00;;
75061;SDS011;63641;46.526;24.612;2023-07-09T10:39:53;3.40;;;1.98;;
75061;SDS011;63641;46.526;24.612;2023-07-09T10:44:55;2.15;;;1.95;;
75061;SDS011;63641;46.526;24.612;2023-07-09T10:47:31;2.13;;;1.90;;
75061;SDS011;63641;46.526;24.612;2023-07-09T10:50:02;3.67;;;1.90;;
75061;SDS011;63641;46.526;24.612;2023-07-09T10:52:32;1.90;;;1.67;;
75061;SDS011;63641;46.526;24.612;2023-07-09T10:55:13;2.70;;;1.90;;
75061;SDS011;63641;46.526;24.612;2023-07-09T10:58:10;1.80;;;1.70;;
75061;SDS011;63641;46.526;24.612;2023-07-09T11:00:57;2.78;;;2.30;;
75061;SDS011;63641;46.526;24.612;2023-07-09T11:03:33;2.35;;;1.80;;
75061;SDS011;63641;46.526;24.612;2023-07-09T11:06:09;2.10;;;1.90;;
75061;SDS011;63641;46.526;24.612;2023-07-09T11:08:41;2.10;;;1.75;;
75061;SDS011;63641;46.526;24.612;2023-07-09T11:11:10;1.98;;;1.70;;
75061;SDS011;63641;46.526;24.612;2023-07-09T11:13:53;2.27;;;1.70;;
75061;SDS011;63641;46.526;24.612;2023-07-09T11:16:31;2.03;;;1.92;;
75061;SDS011;63641;46.526;24.612;2023-07-09T11:19:02;3.25;;;1.80;;
75061;SDS011;63641;46.526;24.612;2023-07-09T11:21:32;2.03;;;1.83;;
75061;SDS011;63641;46.526;24.612;2023-07-09T11:24:02;2.55;;;1.70;;
75061;SDS011;63641;46.526;24.612;2023-07-09T11:26:33;1.80;;;1.70;;
75061;SDS011;63641;46.526;24.612;2023-07-09T11:29:15;2.25;;;1.80;;
75061;SDS011;63641;46.526;24.612;2023-07-09T11:31:44;1.60;;;1.50;;
75061;SDS011;63641;46.526;24.612;2023-07-09T11:36:50;2.05;;;1.90;;
75061;SDS011;63641;46.526;24.612;2023-07-09T11:39:28;2.35;;;1.88;;
75061;SDS011;63641;46.526;24.612;2023-07-09T11:42:04;2.13;;;1.80;;
75061;SDS011;63641;46.526;24.612;2023-07-09T11:45:20;2.88;;;2.00;;
75061;SDS011;63641;46.526;24.612;2023-07-09T11:50:53;4.18;;;1.77;;
75061;SDS011;63641;46.526;24.612;2023-07-09T11:53:42;2.13;;;1.73;;
75061;SDS011;63641;46.526;24.612;2023-07-09T11:56:13;2.20;;;1.85;;
75061;SDS011;63641;46.526;24.612;2023-07-09T11:58:57;1.80;;;1.70;;
75061;SDS011;63641;46.526;24.612;2023-07-09T12:01:28;2.58;;;1.90;;
75061;SDS011;63641;46.526;24.612;2023-07-09T12:04:06;2.83;;;1.98;;
75061;SDS011;63641;46.526;24.612;2023-07-09T12:06:33;3.75;;;1.98;;
75061;SDS011;63641;46.526;24.612;2023-07-09T12:09:00;2.90;;;2.03;;
75061;SDS011;63641;46.526;24.612;2023-07-09T12:11:30;4.35;;;2.40;;
75061;SDS011;63641;46.526;24.612;2023-07-09T12:14:02;2.40;;;1.70;;
75061;SDS011;63641;46.526;24.612;2023-07-09T12:16:35;2.28;;;2.05;;
75061;SDS011;63641;46.526;24.612;2023-07-09T12:19:05;1.92;;;1.73;;
75061;SDS011;63641;46.526;24.612;2023-07-09T12:21:33;2.20;;;2.00;;
75061;SDS011;63641;46.526;24.612;2023-07-09T12:24:03;4.28;;;1.70;;
75061;SDS011;63641;46.526;24.612;2023-07-09T12:26:52;3.00;;;1.90;;
75061;SDS011;63641;46.526;24.612;2023-07-09T12:29:27;2.60;;;2.40;;
75061;SDS011;63641;46.526;24.612;2023-07-09T12:31:56;1.90;;;1.70;;
75061;SDS011;63641;46.526;24.612;2023-07-09T12:34:24;2.90;;;2.00;;
75061;SDS011;63641;46.526;24.612;2023-07-09T12:36:52;2.40;;;1.85;;
75061;SDS011;63641;46.526;24.612;2023-07-09T12:39:23;3.20;;;1.98;;
75061;SDS011;63641;46.526;24.612;2023-07-09T12:41:53;2.00;;;1.80;;
75061;SDS011;63641;46.526;24.612;2023-07-09T12:44:23;2.28;;;1.95;;
75061;SDS011;63641;46.526;24.612;2023-07-09T12:46:51;2.50;;;2.00;;
75061;SDS011;63641;46.526;24.612;2023-07-09T12:51:48;1.92;;;1.75;;
75061;SDS011;63641;46.526;24.612;2023-07-09T12:54:16;2.75;;;1.92;;
75061;SDS011;63641;46.526;24.612;2023-07-09T12:56:49;1.98;;;1.88;;
75061;SDS011;63641;46.526;24.612;2023-07-09T12:59:19;1.90;;;1.70;;
75061;SDS011;63641;46.526;24.612;2023-07-09T13:02:00;2.38;;;1.77;;
75061;SDS011;63641;46.526;24.612;2023-07-09T13:04:30;3.28;;;2.45;;
75061;SDS011;63641;46.526;24.612;2023-07-09T13:06:59;2.10;;;1.90;;
75061;SDS011;63641;46.526;24.612;2023-07-09T13:09:26;2.13;;;1.92;;
75061;SDS011;63641;46.526;24.612;2023-07-09T13:11:55;2.20;;;2.00;;
75061;SDS011;63641;46.526;24.612;2023-07-09T13:14:24;2.17;;;1.92;;
75061;SDS011;63641;46.526;24.612;2023-07-09T13:16:53;2.88;;;2.20;;
75061;SDS011;63641;46.526;24.612;2023-07-09T13:19:28;2.35;;;2.10;;
75061;SDS011;63641;46.526;24.612;2023-07-09T13:21:55;2.10;;;1.90;;
75061;SDS011;63641;46.526;24.612;2023-07-09T13:24:23;2.03;;;1.85;;
75061;SDS011;63641;46.526;24.612;2023-07-09T13:26:51;4.82;;;2.20;;
75061;SDS011;63641;46.526;24.612;2023-07-09T13:29:19;5.45;;;2.65;;
75061;SDS011;63641;46.526;24.612;2023-07-09T13:31:47;2.10;;;1.90;;
75061;SDS011;63641;46.526;24.612;2023-07-09T13:34:24;1.83;;;1.73;;
75061;SDS011;63641;46.526;24.612;2023-07-09T13:36:53;1.88;;;1.75;;
75061;SDS011;63641;46.526;24.612;2023-07-09T13:39:22;2.38;;;2.17;;
75061;SDS011;63641;46.526;24.612;2023-07-09T13:41:53;2.00;;;1.83;;
75061;SDS011;63641;46.526;24.612;2023-07-09T13:44:24;2.10;;;2.00;;
75061;SDS011;63641;46.526;24.612;2023-07-09T13:46:55;2.83;;;2.13;;
75061;SDS011;63641;46.526;24.612;2023-07-09T13:49:23;3.15;;;2.58;;
75061;SDS011;63641;46.526;24.612;2023-07-09T13:51:52;3.10;;;2.08;;
75061;SDS011;63641;46.526;24.612;2023-07-09T13:54:25;4.22;;;2.00;;
75061;SDS011;63641;46.526;24.612;2023-07-09T13:57:04;3.97;;;1.90;;
75061;SDS011;63641;46.526;24.612;2023-07-09T13:59:32;3.80;;;2.13;;
75061;SDS011;63641;46.526;24.612;2023-07-09T14:02:07;3.72;;;3.10;;
75061;SDS011;63641;46.526;24.612;2023-07-09T14:04:51;3.78;;;2.72;;
75061;SDS011;63641;46.526;24.612;2023-07-09T14:07:37;2.10;;;1.90;;
75061;SDS011;63641;46.526;24.612;2023-07-09T14:10:07;3.10;;;2.08;;
75061;SDS011;63641;46.526;24.612;2023-07-09T14:12:40;2.15;;;2.00;;
75061;SDS011;63641;46.526;24.612;2023-07-09T14:15:18;2.83;;;2.10;;
75061;SDS011;63641;46.526;24.612;2023-07-09T14:17:46;5.35;;;2.10;;
75061;SDS011;63641;46.526;24.612;2023-07-09T14:20:14;2.10;;;1.90;;
75061;SDS011;63641;46.526;24.612;2023-07-09T14:22:42;3.25;;;2.20;;
75061;SDS011;63641;46.526;24.612;2023-07-09T14:25:14;4.22;;;2.03;;
75061;SDS011;63641;46.526;24.612;2023-07-09T14:27:44;2.33;;;1.90;;
75061;SDS011;63641;46.526;24.612;2023-07-09T14:30:15;3.30;;;2.00;;
75061;SDS011;63641;46.526;24.612;2023-07-09T14:32:44;3.53;;;2.22;;
75061;SDS011;63641;46.526;24.612;2023-07-09T14:35:14;4.55;;;2.10;;
75061;SDS011;63641;46.526;24.612;2023-07-09T14:37:43;3.58;;;2.10;;
75061;SDS011;63641;46.526;24.612;2023-07-09T14:40:11;2.00;;;1.90;;
75061;SDS011;63641;46.526;24.612;2023-07-09T14:42:39;2.00;;;1.88;;
75061;SDS011;63641;46.526;24.612;2023-07-09T14:45:23;2.22;;;2.05;;
75061;SDS011;63641;46.526;24.612;2023-07-09T14:47:52;2.47;;;2.10;;
75061;SDS011;63641;46.526;24.612;2023-07-09T14:50:20;3.33;;;2.00;;
75061;SDS011;63641;46.526;24.612;2023-07-09T14:52:49;2.20;;;2.10;;
75061;SDS011;63641;46.526;24.612;2023-07-09T14:55:16;2.42;;;2.20;;
75061;SDS011;63641;46.526;24.612;2023-07-09T14:57:47;2.42;;;2.00;;
75061;SDS011;63641;46.526;24.612;2023-07-09T15:00:20;2.13;;;2.03;;
75061;SDS011;63641;46.526;24.612;2023-07-09T15:02:52;2.28;;;2.08;;
75061;SDS011;63641;46.526;24.612;2023-07-09T15:05:24;3.72;;;2.05;;
75061;SDS011;63641;46.526;24.612;2023-07-09T15:07:51;2.20;;;2.00;;
75061;SDS011;63641;46.526;24.612;2023-07-09T15:10:20;2.30;;;2.10;;
75061;SDS011;63641;46.526;24.612;2023-07-09T15:12:50;2.33;;;2.10;;
75061;SDS011;63641;46.526;24.612;2023-07-09T15:17:55;1.95;;;1.85;;
75061;SDS011;63641;46.526;24.612;2023-07-09T15:20:24;3.50;;;2.10;;
75061;SDS011;63641;46.526;24.612;2023-07-09T15:22:53;2.40;;;1.88;;
75061;SDS011;63641;46.526;24.612;2023-07-09T15:25:24;3.35;;;2.13;;
75061;SDS011;63641;46.526;24.612;2023-07-09T15:27:53;2.10;;;1.90;;
75061;SDS011;63641;46.526;24.612;2023-07-09T15:30:24;2.22;;;2.00;;
75061;SDS011;63641;46.526;24.612;2023-07-09T15:32:54;2.40;;;2.17;;